Time;durP1;ratioP1;P1;durP2;ratioP2;P2;SDS_P1;SDS_P2;PMS_P1;PMS_P2;Temp;Humidity;BMP_temperature;BMP_pressure;BME280_temperature;BME280_humidity;BME280_pressure;Samples;Min_cycle;Max_cycle;Signal;HPM_P1;HPM_P2
2023/03/01 00:01:23;;;;;;;21.80;9.27;;;;;;;-1.19;100.00;103280.06;4959153;28;20038;-77
2023/03/01 00:03:49;;;;;;;20.48;8.73;;;;;;;-1.24;100.00;103269.47;4971504;28;20037;-76
2023/03/01 00:06:15;;;;;;;19.77;9.02;;;;;;;-1.30;100.00;103275.28;4960950;28;20033;-77
2023/03/01 00:08:40;;;;;;;19.20;9.00;;;;;;;-1.34;100.00;103278.59;4975580;28;20049;-76
2023/03/01 00:11:12;;;;;;;19.20;9.13;;;;;;;-1.40;100.00;103279.22;4965308;28;20480;-77
2023/03/01 00:13:38;;;;;;;16.30;8.77;;;;;;;-1.43;100.00;103283.38;4992586;28;20045;-76
2023/03/01 00:16:05;;;;;;;19.67;9.02;;;;;;;-1.48;100.00;103277.09;4993625;28;20045;-77
2023/03/01 00:18:30;;;;;;;17.52;8.10;;;;;;;-1.52;100.00;103274.34;4973465;28;20777;-76
2023/03/01 00:20:56;;;;;;;19.08;8.70;;;;;;;-1.56;100.00;103279.34;4995168;28;20044;-77
2023/03/01 00:23:22;;;;;;;25.33;8.43;;;;;;;-1.59;100.00;103277.50;4993497;28;20046;-77
2023/03/01 00:25:48;;;;;;;23.88;10.25;;;;;;;-1.61;100.00;103267.88;4973653;28;20128;-78
2023/03/01 00:28:14;;;;;;;25.63;10.80;;;;;;;-1.65;100.00;103261.66;4973590;28;20083;-76
2023/03/01 00:30:39;;;;;;;22.88;10.00;;;;;;;-1.69;100.00;103265.81;4994561;28;20038;-77
2023/03/01 00:33:05;;;;;;;22.88;10.75;;;;;;;-1.71;100.00;103267.47;4993153;28;20591;-76
2023/03/01 00:35:32;;;;;;;22.05;10.15;;;;;;;-1.72;100.00;103263.09;4990432;28;20440;-76
2023/03/01 00:37:58;;;;;;;19.17;9.15;;;;;;;-1.74;100.00;103256.91;4975680;28;20065;-78
2023/03/01 00:40:24;;;;;;;17.55;8.52;;;;;;;-1.74;100.00;103261.25;4991494;28;20348;-77
2023/03/01 00:42:50;;;;;;;18.40;9.57;;;;;;;-1.76;100.00;103257.69;4987010;28;20030;-77
2023/03/01 00:45:15;;;;;;;17.75;8.82;;;;;;;-1.79;100.00;103253.25;4973834;28;20069;-77
2023/03/01 00:47:41;;;;;;;17.10;8.40;;;;;;;-1.80;100.00;103262.75;4962269;28;20042;-77
2023/03/01 00:50:07;;;;;;;17.50;8.82;;;;;;;-1.81;100.00;103260.97;4992734;28;20041;-78
2023/03/01 00:52:33;;;;;;;18.92;9.35;;;;;;;-1.81;100.00;103262.66;4980329;28;20032;-77
2023/03/01 00:54:58;;;;;;;21.10;9.68;;;;;;;-1.83;100.00;103262.63;4995851;28;20558;-78
2023/03/01 00:57:24;;;;;;;21.15;8.90;;;;;;;-1.85;100.00;103256.44;4975551;28;20034;-77
2023/03/01 00:59:52;;;;;;;14.20;7.82;;;;;;;-1.88;100.00;103266.72;4975727;28;20411;-77
2023/03/01 01:02:19;;;;;;;15.88;8.73;;;;;;;-1.91;100.00;103261.34;4991584;28;20290;-78
2023/03/01 01:04:45;;;;;;;14.02;8.05;;;;;;;-1.95;100.00;103255.13;4975194;28;20047;-78
2023/03/01 01:07:12;;;;;;;13.40;7.22;;;;;;;-1.98;100.00;103257.59;4973894;28;20052;-78
2023/03/01 01:09:38;;;;;;;12.40;6.97;;;;;;;-2.00;100.00;103260.94;4972645;28;20042;-77
2023/03/01 01:12:04;;;;;;;13.85;7.40;;;;;;;-2.02;100.00;103254.81;4994023;28;20044;-78
2023/03/01 01:14:30;;;;;;;12.50;7.20;;;;;;;-2.10;100.00;103255.34;4993648;28;20120;-78
2023/03/01 01:16:55;;;;;;;16.88;7.35;;;;;;;-2.14;100.00;103256.00;4960464;28;20076;-78
2023/03/01 01:19:21;;;;;;;12.65;6.65;;;;;;;-2.19;100.00;103247.13;4973755;28;20037;-77
2023/03/01 01:21:48;;;;;;;10.75;6.35;;;;;;;-2.23;100.00;103245.22;4994912;28;20455;-78
2023/03/01 01:24:14;;;;;;;13.15;6.90;;;;;;;-2.26;100.00;103250.25;4972654;28;20141;-77
2023/03/01 01:26:40;;;;;;;13.80;6.75;;;;;;;-2.32;100.00;103243.97;4947164;28;20058;-78
2023/03/01 01:29:06;;;;;;;12.93;5.72;;;;;;;-2.38;100.00;103238.50;4964012;28;20045;-77
2023/03/01 01:31:33;;;;;;;8.65;5.25;;;;;;;-2.41;100.00;103246.13;4969965;28;20624;-77
2023/03/01 01:34:01;;;;;;;13.63;5.93;;;;;;;-2.50;100.00;103235.31;4975217;28;20618;-77
2023/03/01 01:36:26;;;;;;;14.32;5.47;;;;;;;-2.61;100.00;103235.69;4966563;28;20033;-78
2023/03/01 01:38:52;;;;;;;11.35;5.57;;;;;;;-2.67;100.00;103240.56;4973866;28;20045;-78
2023/03/01 01:41:19;;;;;;;11.50;5.45;;;;;;;-2.70;100.00;103234.34;4955352;28;20029;-77
2023/03/01 01:44:10;;;;;;;9.07;5.05;;;;;;;-2.75;100.00;103234.13;4963359;28;20033;-78
2023/03/01 01:46:41;;;;;;;24.15;5.63;;;;;;;-2.79;100.00;103227.03;4991808;28;20044;-77
2023/03/01 01:49:17;;;;;;;12.90;5.03;;;;;;;-2.82;100.00;103225.19;4971858;28;20047;-78
2023/03/01 01:51:47;;;;;;;11.63;5.50;;;;;;;-2.89;100.00;103213.59;4991316;28;20041;-77
2023/03/01 01:54:16;;;;;;;10.60;5.40;;;;;;;-2.89;100.00;103215.31;4988622;28;20038;-78
2023/03/01 01:56:44;;;;;;;8.98;5.18;;;;;;;-2.91;100.00;103215.25;4960983;28;20196;-77
2023/03/01 01:59:10;;;;;;;8.75;5.28;;;;;;;-2.90;100.00;103206.66;4974347;28;20278;-78
2023/03/01 02:01:38;;;;;;;19.02;5.43;;;;;;;-2.89;100.00;103199.75;4975020;28;20047;-78
2023/03/01 02:04:06;;;;;;;17.77;5.22;;;;;;;-2.94;100.00;103196.06;4989213;28;20037;-77
2023/03/01 02:06:39;;;;;;;7.57;5.00;;;;;;;-2.96;100.00;103193.38;4975155;28;20393;-77
2023/03/01 02:09:08;;;;;;;15.40;4.65;;;;;;;-2.97;100.00;103199.38;4960224;28;20033;-77
2023/03/01 02:11:37;;;;;;;14.10;4.55;;;;;;;-3.04;100.00;103192.13;4968936;28;20603;-77
2023/03/01 02:14:03;;;;;;;20.88;4.80;;;;;;;-3.08;100.00;103185.91;4987223;28;20037;-77
2023/03/01 02:16:30;;;;;;;27.60;5.07;;;;;;;-3.11;100.00;103187.44;4986849;28;20092;-77
2023/03/01 02:18:57;;;;;;;7.43;4.30;;;;;;;-3.16;100.00;103180.34;4965943;28;20141;-78
2023/03/01 02:21:41;;;;;;;9.60;4.30;;;;;;;-3.21;100.00;103179.22;4986679;28;20749;-77
2023/03/01 02:24:29;;;;;;;14.50;4.57;;;;;;;-3.22;100.00;103184.34;4974825;28;20429;-77
2023/03/01 02:26:56;;;;;;;10.48;4.30;;;;;;;-3.24;100.00;103186.84;4990648;28;20985;-76
2023/03/01 02:29:25;;;;;;;7.32;4.07;;;;;;;-3.24;100.00;103180.75;4986176;28;20618;-77
2023/03/01 02:31:53;;;;;;;22.45;4.07;;;;;;;-3.22;100.00;103184.34;4971397;28;20037;-77
2023/03/01 02:34:24;;;;;;;43.30;5.75;;;;;;;-3.23;100.00;103172.19;4968117;28;20095;-77
2023/03/01 02:36:57;;;;;;;17.48;5.25;;;;;;;-3.22;100.00;103172.25;4968934;28;20119;-76
2023/03/01 02:39:33;;;;;;;17.63;4.65;;;;;;;-3.22;100.00;103173.97;4958470;28;20037;-76
2023/03/01 02:41:59;;;;;;;16.60;4.53;;;;;;;-3.24;100.00;103170.41;4974120;28;21640;-75
2023/03/01 02:44:25;;;;;;;14.07;4.30;;;;;;;-3.26;100.00;103167.75;4977907;28;20030;-76
2023/03/01 02:46:54;;;;;;;8.27;3.97;;;;;;;-3.29;100.00;103168.47;4962759;28;20139;-77
2023/03/01 02:49:19;;;;;;;9.85;4.60;;;;;;;-3.32;100.00;103162.25;4970083;28;20093;-77
2023/03/01 02:52:02;;;;;;;21.67;4.15;;;;;;;-3.35;100.00;103156.91;4989515;28;20037;-77
2023/03/01 02:54:30;;;;;;;23.83;4.83;;;;;;;-3.35;100.00;103159.50;4969025;28;20056;-76
2023/03/01 02:56:56;;;;;;;14.05;4.32;;;;;;;-3.37;100.00;103158.53;4977144;28;20045;-76
2023/03/01 02:59:24;;;;;;;9.27;4.20;;;;;;;-3.38;100.00;103151.59;4970805;28;20038;-76
2023/03/01 03:01:50;;;;;;;21.08;4.78;;;;;;;-3.40;100.00;103146.31;4957516;28;20026;-77
2023/03/01 03:04:18;;;;;;;7.57;4.45;;;;;;;-3.41;100.00;103145.44;4951173;28;20037;-76
2023/03/01 03:06:48;;;;;;;19.23;4.30;;;;;;;-3.39;100.00;103150.69;4958596;28;20071;-76
2023/03/01 03:09:14;;;;;;;5.85;4.45;;;;;;;-3.38;100.00;103147.28;4969793;28;20038;-76
2023/03/01 03:11:40;;;;;;;23.73;4.30;;;;;;;-3.35;100.00;103146.53;4951873;28;20739;-76
2023/03/01 03:14:12;;;;;;;31.65;4.95;;;;;;;-3.35;100.00;103151.72;4989507;28;20025;-76
2023/03/01 03:16:43;;;;;;;16.13;4.85;;;;;;;-3.35;100.00;103154.31;4957899;28;20046;-77
2023/03/01 03:19:09;;;;;;;12.35;4.15;;;;;;;-3.38;100.00;103147.28;4955795;28;20184;-76
2023/03/01 03:21:35;;;;;;;15.02;4.20;;;;;;;-3.36;100.00;103137.00;4988759;28;20072;-77
2023/03/01 03:24:01;;;;;;;22.65;4.50;;;;;;;-3.33;100.00;103134.56;4946667;28;20512;-76
2023/03/01 03:26:26;;;;;;;7.85;4.15;;;;;;;-3.29;100.00;103139.06;4957275;28;21313;-77
2023/03/01 03:28:52;;;;;;;16.92;4.53;;;;;;;-3.28;100.00;103139.16;4975944;28;20036;-74
2023/03/01 03:31:18;;;;;;;5.10;4.32;;;;;;;-3.25;100.00;103130.66;4995627;28;20100;-75
2023/03/01 03:33:43;;;;;;;14.57;4.43;;;;;;;-3.24;100.00;103139.28;4991965;28;20442;-75
2023/03/01 03:36:12;;;;;;;14.20;4.03;;;;;;;-3.20;100.00;103136.97;4991317;28;20033;-75
2023/03/01 03:38:39;;;;;;;8.40;4.07;;;;;;;-3.19;100.00;103128.34;4975457;28;21101;-76
2023/03/01 03:41:07;;;;;;;4.63;3.92;;;;;;;-3.22;100.00;103117.81;4958679;28;20050;-76
2023/03/01 03:43:34;;;;;;;4.45;3.95;;;;;;;-3.21;100.00;103124.78;4971040;28;20172;-76
2023/03/01 03:46:00;;;;;;;6.68;3.72;;;;;;;-3.22;100.00;103127.31;4974997;28;20045;-77
2023/03/01 03:48:26;;;;;;;10.10;3.78;;;;;;;-3.25;100.00;103122.88;4976366;28;20427;-76
2023/03/01 03:50:55;;;;;;;11.80;3.38;;;;;;;-3.30;100.00;103126.94;4990707;28;20056;-76
2023/03/01 03:53:22;;;;;;;3.63;3.20;;;;;;;-3.31;100.00;103126.03;4970816;28;20107;-76
2023/03/01 03:55:51;;;;;;;3.97;3.58;;;;;;;-3.31;100.00;103117.41;4974732;28;20417;-74
2023/03/01 03:58:27;;;;;;;4.18;3.60;;;;;;;-3.29;100.00;103115.75;4976741;28;20053;-77
2023/03/01 04:00:57;;;;;;;8.55;3.88;;;;;;;-3.25;100.00;103117.69;4990682;28;20038;-77
2023/03/01 04:03:25;;;;;;;6.93;3.45;;;;;;;-3.23;100.00;103116.06;4953786;28;20302;-75
2023/03/01 04:05:51;;;;;;;8.85;3.53;;;;;;;-3.25;100.00;103127.16;4985501;28;20038;-76
2023/03/01 04:08:22;;;;;;;5.10;3.45;;;;;;;-3.25;100.00;103124.56;4972895;28;20032;-76
2023/03/01 04:10:50;;;;;;;6.05;3.90;;;;;;;-3.22;100.00;103130.78;4993461;28;20033;-75
2023/03/01 04:13:19;;;;;;;9.63;4.32;;;;;;;-3.19;100.00;103133.53;4992962;28;20049;-76
2023/03/01 04:15:49;;;;;;;10.07;4.07;;;;;;;-3.16;100.00;103132.81;4978955;28;20517;-76
2023/03/01 04:18:16;;;;;;;11.75;4.28;;;;;;;-3.16;100.00;103130.22;4996897;28;20076;-76
2023/03/01 04:20:42;;;;;;;9.77;4.60;;;;;;;-3.16;100.00;103125.91;4979005;28;20730;-75
2023/03/01 04:23:13;;;;;;;15.30;4.57;;;;;;;-3.16;100.00;103125.91;4982120;28;20133;-75
2023/03/01 04:25:54;;;;;;;6.63;4.32;;;;;;;-3.17;100.00;103111.16;4967211;28;20021;-76
2023/03/01 04:28:36;;;;;;;12.20;4.38;;;;;;;-3.15;100.00;103104.34;4982207;28;20033;-76
2023/03/01 04:31:12;;;;;;;6.13;4.15;;;;;;;-3.14;100.00;103116.50;4972643;28;20151;-77
2023/03/01 04:33:47;;;;;;;13.80;4.50;;;;;;;-3.16;100.00;103112.94;4954934;28;20596;-76
2023/03/01 04:36:15;;;;;;;14.23;4.50;;;;;;;-3.15;100.00;103106.94;4959008;28;20127;-76
2023/03/01 04:38:41;;;;;;;18.45;4.78;;;;;;;-3.09;100.00;103115.84;4953892;28;20196;-76
2023/03/01 04:41:09;;;;;;;14.43;4.43;;;;;;;-3.05;100.00;103118.63;4954718;28;20054;-77
2023/03/01 04:43:35;;;;;;;14.52;5.07;;;;;;;-3.03;100.00;103122.22;4954354;28;20073;-75
2023/03/01 04:46:02;;;;;;;9.63;4.50;;;;;;;-3.01;100.00;103122.25;4951821;28;20061;-76
2023/03/01 04:48:29;;;;;;;16.98;5.60;;;;;;;-2.98;100.00;103112.06;4934331;28;20253;-75
2023/03/01 04:50:54;;;;;;;11.00;4.85;;;;;;;-2.93;100.00;103110.56;4946081;28;20289;-76
2023/03/01 04:53:20;;;;;;;23.80;5.63;;;;;;;-2.88;100.00;103114.25;4951301;28;20038;-75
2023/03/01 04:55:45;;;;;;;20.23;5.47;;;;;;;-2.86;100.00;103111.75;4951674;28;20053;-75
2023/03/01 04:58:11;;;;;;;28.80;6.05;;;;;;;-2.80;100.00;103111.13;4934976;28;20097;-75
2023/03/01 05:00:37;;;;;;;17.35;5.60;;;;;;;-2.76;100.00;103113.06;4955805;28;20503;-75
2023/03/01 05:03:02;;;;;;;11.90;4.75;;;;;;;-2.70;100.00;103117.63;4954364;28;20138;-75
2023/03/01 05:05:34;;;;;;;16.08;5.40;;;;;;;-2.70;100.00;103108.16;4954855;28;20038;-75
2023/03/01 05:08:01;;;;;;;22.02;5.68;;;;;;;-2.73;100.00;103110.59;4952828;28;21845;-75
2023/03/01 05:10:29;;;;;;;31.45;5.85;;;;;;;-2.77;100.00;103111.28;4955349;28;20037;-76
2023/03/01 05:12:57;;;;;;;15.43;4.85;;;;;;;-2.78;100.00;103106.94;4957613;28;20576;-75
2023/03/01 05:15:25;;;;;;;11.32;4.85;;;;;;;-2.79;100.00;103102.56;4957761;28;20546;-76
2023/03/01 05:17:51;;;;;;;26.50;5.55;;;;;;;-2.83;100.00;103111.00;4959167;28;20141;-75
2023/03/01 05:20:17;;;;;;;26.33;5.53;;;;;;;-2.84;100.00;103096.25;4933481;28;20066;-75
2023/03/01 05:22:43;;;;;;;21.52;6.20;;;;;;;-2.84;100.00;103097.13;4950849;28;20125;-75
2023/03/01 05:25:08;;;;;;;19.20;6.13;;;;;;;-2.83;100.00;103092.84;4950580;28;20035;-76
2023/03/01 05:27:34;;;;;;;24.60;6.45;;;;;;;-2.82;100.00;103089.44;4952880;28;20081;-75
2023/03/01 05:30:13;;;;;;;16.90;5.47;;;;;;;-2.80;100.00;103077.41;4957144;28;20185;-76
2023/03/01 05:32:44;;;;;;;21.40;5.35;;;;;;;-2.83;100.00;103072.09;4960831;28;20054;-76
2023/03/01 05:35:14;;;;;;;8.25;4.78;;;;;;;-2.87;100.00;103073.66;4973096;28;21660;-76
2023/03/01 05:37:41;;;;;;;12.82;4.97;;;;;;;-2.90;100.00;103068.31;4978411;28;20176;-76
2023/03/01 05:40:20;;;;;;;17.65;5.45;;;;;;;-2.92;100.00;103057.91;4970993;28;20045;-76
2023/03/01 05:42:47;;;;;;;14.98;4.72;;;;;;;-2.96;100.00;103063.75;4974226;28;20355;-76
2023/03/01 05:45:14;;;;;;;16.02;5.22;;;;;;;-3.02;100.00;103053.09;4973256;28;20034;-76
2023/03/01 05:47:43;;;;;;;30.30;5.43;;;;;;;-3.05;100.00;103047.78;4977600;28;20049;-75
2023/03/01 05:50:13;;;;;;;8.88;5.38;;;;;;;-3.09;100.00;103053.63;4984672;28;20045;-75
2023/03/01 05:52:39;;;;;;;11.70;4.82;;;;;;;-3.11;100.00;103050.09;4974786;28;20035;-75
2023/03/01 05:55:06;;;;;;;7.95;5.22;;;;;;;-3.15;100.00;103042.16;4961066;28;20064;-76
2023/03/01 05:57:31;;;;;;;11.95;5.28;;;;;;;-3.16;100.00;103039.50;4970442;28;20323;-76
2023/03/01 05:59:56;;;;;;;19.58;4.72;;;;;;;-3.18;100.00;103044.63;4973466;28;20177;-76
2023/03/01 06:02:22;;;;;;;23.30;4.95;;;;;;;-3.20;100.00;103048.84;4976574;28;20052;-75
2023/03/01 06:04:48;;;;;;;11.77;4.88;;;;;;;-3.20;100.00;103048.84;4975760;28;20056;-76
2023/03/01 06:07:13;;;;;;;13.98;5.20;;;;;;;-3.25;100.00;103039.97;4975121;28;20650;-75
2023/03/01 06:09:39;;;;;;;16.02;5.32;;;;;;;-3.29;100.00;103041.50;4972127;28;20421;-76
2023/03/01 06:12:05;;;;;;;11.82;5.70;;;;;;;-3.29;100.00;103044.09;4973665;28;20321;-75
2023/03/01 06:14:30;;;;;;;26.10;6.07;;;;;;;-3.30;100.00;103042.34;4963872;28;20087;-75
2023/03/01 06:16:56;;;;;;;15.70;5.35;;;;;;;-3.32;100.00;103043.06;4979985;28;20042;-75
2023/03/01 06:19:21;;;;;;;12.77;4.80;;;;;;;-3.30;100.00;103046.63;4950843;28;20039;-76
2023/03/01 06:21:50;;;;;;;30.98;5.28;;;;;;;-3.26;100.00;103048.56;4981956;28;20025;-75
2023/03/01 06:24:16;;;;;;;32.78;5.15;;;;;;;-3.27;100.00;103049.38;4964302;28;20108;-76
2023/03/01 06:26:41;;;;;;;11.68;5.07;;;;;;;-3.27;100.00;103046.78;4977964;28;20038;-76
2023/03/01 06:29:08;;;;;;;28.40;4.95;;;;;;;-3.26;100.00;103045.97;4958506;28;20990;-76
2023/03/01 06:31:34;;;;;;;38.60;5.32;;;;;;;-3.27;100.00;103062.31;4978049;28;20041;-75
2023/03/01 06:33:59;;;;;;;11.77;5.50;;;;;;;-3.26;100.00;103058.91;4944814;28;20041;-75
2023/03/01 06:36:25;;;;;;;24.27;5.88;;;;;;;-3.21;100.00;103060.00;4990581;28;20540;-75
2023/03/01 06:38:50;;;;;;;40.30;6.10;;;;;;;-3.19;100.00;103054.91;4992757;28;20037;-75
2023/03/01 06:41:16;;;;;;;21.65;5.60;;;;;;;-3.15;100.00;103051.66;4994286;28;20049;-75
2023/03/01 06:43:41;;;;;;;22.05;5.38;;;;;;;-3.12;100.00;103054.38;4977344;28;20038;-75
2023/03/01 06:46:07;;;;;;;31.60;5.32;;;;;;;-3.13;100.00;103060.38;4975040;28;20033;-75
2023/03/01 06:48:33;;;;;;;17.73;5.22;;;;;;;-3.15;100.00;103055.09;4995861;28;20045;-75
2023/03/01 06:51:00;;;;;;;22.38;6.57;;;;;;;-3.17;100.00;103059.34;4986644;28;20702;-76
2023/03/01 06:53:27;;;;;;;17.80;6.97;;;;;;;-3.23;100.00;103058.19;4976021;28;20124;-75
2023/03/01 06:55:57;;;;;;;14.50;5.18;;;;;;;-3.24;100.00;103058.97;5000135;28;20038;-75
2023/03/01 06:58:22;;;;;;;20.20;5.47;;;;;;;-3.27;100.00;103070.09;4973657;28;20033;-75
2023/03/01 07:00:48;;;;;;;9.55;4.88;;;;;;;-3.32;100.00;103064.66;4966981;28;20041;-75
2023/03/01 07:03:14;;;;;;;27.05;5.57;;;;;;;-3.33;100.00;103062.03;4984775;28;20061;-76
2023/03/01 07:05:39;;;;;;;23.98;5.50;;;;;;;-3.28;100.00;103074.38;4985502;28;20368;-76
2023/03/01 07:08:05;;;;;;;11.43;4.80;;;;;;;-3.27;100.00;103070.09;4974981;28;20059;-75
2023/03/01 07:10:30;;;;;;;19.33;5.25;;;;;;;-3.24;100.00;103065.03;4985432;28;20717;-75
2023/03/01 07:12:57;;;;;;;23.40;5.60;;;;;;;-3.17;100.00;103074.88;5000889;28;20243;-76
2023/03/01 07:15:23;;;;;;;32.33;4.82;;;;;;;-3.13;100.00;103073.34;4998290;28;20055;-75
2023/03/01 07:17:50;;;;;;;12.30;5.05;;;;;;;-3.06;100.00;103077.13;5003273;28;20400;-75
2023/03/01 07:20:16;;;;;;;22.55;6.03;;;;;;;-2.98;100.00;103080.94;4977543;28;20159;-74
2023/03/01 07:22:42;;;;;;;14.15;5.57;;;;;;;-2.92;100.00;103076.06;4996042;28;20040;-75
2023/03/01 07:25:09;;;;;;;30.58;6.10;;;;;;;-2.91;100.00;103072.63;4982205;28;20033;-75
2023/03/01 07:27:34;;;;;;;21.08;5.85;;;;;;;-2.94;100.00;103067.28;4986353;28;20749;-75
2023/03/01 07:30:00;;;;;;;28.25;6.18;;;;;;;-2.92;100.00;103077.75;4984204;28;20137;-76
2023/03/01 07:32:26;;;;;;;24.40;5.78;;;;;;;-2.90;100.00;103074.41;4970278;28;20068;-76
2023/03/01 07:34:51;;;;;;;12.85;5.40;;;;;;;-2.86;100.00;103075.44;4983608;28;20038;-75
2023/03/01 07:37:17;;;;;;;10.75;5.18;;;;;;;-2.81;100.00;103075.66;5003422;28;20139;-76
2023/03/01 07:39:42;;;;;;;24.65;6.60;;;;;;;-2.77;100.00;103083.63;5002209;28;20060;-76
2023/03/01 07:42:08;;;;;;;15.73;5.70;;;;;;;-2.73;100.00;103088.16;4987771;28;20365;-76
2023/03/01 07:44:36;;;;;;;18.35;5.72;;;;;;;-2.66;100.00;103089.34;4983460;28;20533;-76
2023/03/01 07:47:03;;;;;;;22.52;6.60;;;;;;;-2.64;100.00;103087.69;5004918;28;20628;-76
2023/03/01 07:49:29;;;;;;;21.40;6.25;;;;;;;-2.61;100.00;103087.81;4984289;28;20037;-76
2023/03/01 07:51:54;;;;;;;16.85;6.30;;;;;;;-2.62;100.00;103083.44;4983742;28;20467;-76
2023/03/01 07:54:20;;;;;;;15.65;6.55;;;;;;;-2.62;100.00;103096.44;4981923;28;20049;-76
2023/03/01 07:56:46;;;;;;;15.85;6.57;;;;;;;-2.63;100.00;103092.06;4973217;28;20463;-76
2023/03/01 07:59:11;;;;;;;11.10;6.18;;;;;;;-2.64;100.00;103091.97;4984668;28;20516;-76
2023/03/01 08:01:37;;;;;;;12.50;7.13;;;;;;;-2.59;100.00;103087.91;4991468;28;20524;-76
2023/03/01 08:04:04;;;;;;;11.25;7.00;;;;;;;-2.54;100.00;103085.50;5002482;28;20512;-77
2023/03/01 08:06:30;;;;;;;14.95;7.80;;;;;;;-2.49;100.00;103086.59;4984107;28;20071;-78
2023/03/01 08:08:56;;;;;;;16.30;8.38;;;;;;;-2.42;100.00;103092.94;4981078;28;20367;-79
2023/03/01 08:11:21;;;;;;;15.95;9.00;;;;;;;-2.38;100.00;103095.78;4971855;28;20844;-79
2023/03/01 08:13:48;;;;;;;17.02;8.63;;;;;;;-2.32;100.00;103093.44;4982052;28;20042;-79
2023/03/01 08:16:15;;;;;;;11.05;7.53;;;;;;;-2.26;100.00;103094.50;4964172;28;20568;-81
2023/03/01 08:18:41;;;;;;;14.63;8.13;;;;;;;-2.21;100.00;103100.81;4946806;28;20029;-80
2023/03/01 08:21:12;;;;;;;13.15;7.80;;;;;;;-2.14;100.00;103095.06;4978288;28;21606;-78
2023/03/01 08:23:38;;;;;;;14.20;7.70;;;;;;;-2.08;100.00;103099.63;4958567;28;20591;-78
2023/03/01 08:26:08;;;;;;;14.63;7.93;;;;;;;-2.05;100.00;103087.66;4996767;28;21673;-78
2023/03/01 08:28:34;;;;;;;15.32;9.02;;;;;;;-1.99;100.00;103088.75;4995464;28;20037;-78
2023/03/01 08:31:00;;;;;;;14.93;8.82;;;;;;;-1.94;100.00;103092.44;4981629;28;20456;-78
2023/03/01 08:33:26;;;;;;;14.43;8.82;;;;;;;-1.87;100.00;103078.91;4982030;28;20057;-76
2023/03/01 08:35:52;;;;;;;13.95;8.40;;;;;;;-1.83;100.00;103075.63;4993083;28;20409;-77
2023/03/01 08:38:17;;;;;;;12.55;7.32;;;;;;;-1.81;100.00;103066.16;4980638;28;20560;-78
2023/03/01 08:40:43;;;;;;;13.70;8.13;;;;;;;-1.74;100.00;103072.50;4998875;28;20034;-77
2023/03/01 08:43:09;;;;;;;14.35;8.52;;;;;;;-1.71;100.00;103064.84;4998189;28;20038;-78
2023/03/01 08:45:36;;;;;;;14.80;8.07;;;;;;;-1.70;100.00;103063.16;4956705;28;20049;-76
2023/03/01 08:48:01;;;;;;;14.13;8.05;;;;;;;-1.66;100.00;103062.44;4983533;28;20042;-78
2023/03/01 08:50:27;;;;;;;13.90;8.82;;;;;;;-1.61;100.00;103060.91;4984275;28;20041;-77
2023/03/01 08:52:53;;;;;;;17.17;9.60;;;;;;;-1.55;100.00;103065.47;4999628;28;20073;-78
2023/03/01 08:55:18;;;;;;;15.73;9.07;;;;;;;-1.48;100.00;103066.63;4972776;28;20484;-78
2023/03/01 08:57:44;;;;;;;16.25;9.25;;;;;;;-1.45;100.00;103066.72;4985637;28;20370;-78
2023/03/01 09:00:11;;;;;;;16.35;9.52;;;;;;;-1.42;100.00;103067.72;5001573;28;20136;-78
2023/03/01 09:02:36;;;;;;;15.00;8.65;;;;;;;-1.38;100.00;103060.94;4981511;28;20036;-77
2023/03/01 09:05:02;;;;;;;16.48;9.07;;;;;;;-1.32;100.00;103066.41;4963898;28;20553;-77
2023/03/01 09:07:28;;;;;;;15.43;9.15;;;;;;;-1.28;100.00;103063.09;4980737;28;20460;-77
2023/03/01 09:09:54;;;;;;;19.20;9.65;;;;;;;-1.26;100.00;103060.53;5003466;28;20137;-76
2023/03/01 09:12:21;;;;;;;16.52;8.90;;;;;;;-1.21;100.00;103060.75;5002028;28;20066;-77
2023/03/01 09:14:46;;;;;;;14.00;8.57;;;;;;;-1.18;100.00;103059.16;4999040;28;20049;-78
2023/03/01 09:17:12;;;;;;;16.23;9.07;;;;;;;-1.17;100.00;103063.53;5000963;28;20413;-77
2023/03/01 09:19:37;;;;;;;16.50;9.48;;;;;;;-1.14;100.00;103065.38;4993185;28;20043;-78
2023/03/01 09:22:04;;;;;;;17.80;9.38;;;;;;;-1.12;100.00;103061.09;4968622;28;20051;-76
2023/03/01 09:24:29;;;;;;;17.48;9.35;;;;;;;-1.09;100.00;103071.63;4999371;28;20372;-75
2023/03/01 09:26:56;;;;;;;15.73;9.27;;;;;;;-1.06;100.00;103065.63;4965828;28;20029;-75
2023/03/01 09:29:22;;;;;;;16.60;9.38;;;;;;;-1.02;100.00;103063.25;4999343;28;20101;-75
2023/03/01 09:31:47;;;;;;;18.55;10.23;;;;;;;-0.97;100.00;103066.00;4990049;28;20157;-75
2023/03/01 09:34:15;;;;;;;17.70;9.80;;;;;;;-0.93;100.00;103062.69;4981053;28;20058;-75
2023/03/01 09:39:17;;;;;;;18.58;9.82;;;;;;;-0.82;100.00;103055.28;5014144;23;20067;-75
2023/03/01 09:41:50;;;;;;;17.40;10.18;;;;;;;-0.78;100.00;103051.06;5065828;23;20690;-76
2023/03/01 09:44:27;;;;;;;18.83;9.80;;;;;;;-0.75;100.00;103054.72;4968371;28;20224;-77
2023/03/01 09:46:52;;;;;;;17.75;10.15;;;;;;;-0.69;100.00;103051.44;4995095;28;20391;-77
2023/03/01 09:49:21;;;;;;;20.20;10.50;;;;;;;-0.62;100.00;103045.63;4950431;28;20068;-77
2023/03/01 09:52:20;;;;;;;21.83;10.73;;;;;;;-0.54;100.00;103048.53;4964548;28;20064;-76
2023/03/01 09:54:48;;;;;;;17.30;9.75;;;;;;;-0.48;100.00;103046.13;4948995;28;20069;-76
2023/03/01 09:57:23;;;;;;;18.30;10.60;;;;;;;-0.43;100.00;103049.78;4964609;28;20037;-77
2023/03/01 09:59:52;;;;;;;18.58;9.65;;;;;;;-0.41;100.00;103052.44;4982088;28;20646;-76
2023/03/01 10:02:20;;;;;;;18.92;10.20;;;;;;;-0.38;100.00;103054.28;4983170;28;20030;-76
2023/03/01 10:04:48;;;;;;;18.08;10.02;;;;;;;-0.35;100.00;103047.47;4995443;28;20129;-75
2023/03/01 10:07:38;;;;;;;17.20;9.77;;;;;;;-0.27;100.00;103052.94;4963546;28;21353;-74
2023/03/01 10:10:08;;;;;;;16.52;9.10;;;;;;;-0.20;100.00;103046.22;4982034;28;20034;-76
2023/03/01 10:12:37;;;;;;;17.73;10.68;;;;;;;-0.12;100.00;103044.75;4962972;28;20053;-73
2023/03/01 10:15:02;;;;;;;19.27;9.57;;;;;;;-0.04;100.00;103045.03;4966449;28;20049;-73
2023/03/01 10:17:37;;;;;;;18.65;10.27;;;;;;;0.05;100.00;103055.75;4967602;28;20982;-74
2023/03/01 10:20:14;;;;;;;17.00;10.05;;;;;;;0.16;100.00;103047.44;4956613;28;21282;-74
2023/03/01 10:22:50;;;;;;;16.73;9.27;;;;;;;0.24;100.00;103038.16;4966224;28;20030;-74
2023/03/01 10:25:40;;;;;;;17.38;9.63;;;;;;;0.32;100.00;103038.41;4961405;28;20152;-74
2023/03/01 10:28:12;;;;;;;16.92;9.27;;;;;;;0.42;100.00;103034.38;4981030;28;20112;-75
2023/03/01 10:30:41;;;;;;;19.23;10.23;;;;;;;0.46;100.00;103031.03;4964717;28;20045;-75
2023/03/01 10:33:28;;;;;;;18.55;9.75;;;;;;;0.51;100.00;103029.44;4966120;28;20066;-74
2023/03/01 10:35:54;;;;;;;19.63;10.55;;;;;;;0.59;100.00;103025.34;4965199;28;20129;-75
2023/03/01 10:38:20;;;;;;;17.70;9.07;;;;;;;0.65;100.00;103019.47;4965697;28;21556;-75
2023/03/01 10:41:05;;;;;;;17.85;10.52;;;;;;;0.70;100.00;103022.22;4966519;28;20050;-74
2023/03/01 10:43:44;;;;;;;19.98;10.05;;;;;;;0.77;100.00;103011.13;4968086;28;20045;-75
2023/03/01 10:46:26;;;;;;;16.48;9.60;;;;;;;0.86;100.00;103003.56;4974924;28;20062;-75
2023/03/01 10:49:20;;;;;;;18.67;10.10;;;;;;;0.98;100.00;102999.56;4947364;28;20085;-75
2023/03/01 10:51:52;;;;;;;22.23;10.70;;;;;;;1.07;100.00;103005.03;4929794;28;20110;-75
2023/03/01 10:54:22;;;;;;;19.35;10.32;;;;;;;1.15;100.00;103003.53;4943238;28;20038;-74
2023/03/01 10:56:59;;;;;;;22.73;11.13;;;;;;;1.27;100.00;103003.00;4948849;28;20036;-75
2023/03/01 10:59:28;;;;;;;19.25;10.52;;;;;;;1.34;100.00;102991.00;4926763;28;20046;-75
2023/03/01 11:02:15;;;;;;;19.48;10.25;;;;;;;1.43;100.00;102995.59;4924977;28;20033;-74
2023/03/01 11:04:57;;;;;;;19.73;11.38;;;;;;;1.58;100.00;102997.75;4946689;28;20028;-75
2023/03/01 11:07:22;;;;;;;25.45;12.52;;;;;;;1.67;100.00;103003.19;4948930;28;20043;-75
2023/03/01 11:09:48;;;;;;;21.70;11.63;;;;;;;1.76;100.00;103002.56;4926275;28;20034;-75
2023/03/01 11:12:16;;;;;;;21.75;11.25;;;;;;;1.86;100.00;103006.31;4914911;28;20032;-75
2023/03/01 11:14:50;;;;;;;23.17;12.95;;;;;;;2.00;100.00;103009.25;4931829;28;20429;-74
2023/03/01 11:17:21;;;;;;;25.20;13.27;;;;;;;2.15;100.00;103003.53;4936004;28;20394;-75